createdAt,value
2017-10-28T08:40:57.317Z,65.75
2017-10-28T08:43:24.893Z,65.98
2017-10-28T08:45:52.432Z,67.60
2017-10-28T08:48:20.419Z,67.25
2017-10-28T08:50:48.678Z,67.59
2017-10-28T08:53:16.668Z,68.02
2017-10-28T08:55:44.552Z,67.75
2017-10-28T08:58:13.024Z,67.22
2017-10-28T09:00:40.612Z,66.58
2017-10-28T09:03:08.717Z,66.60
2017-10-28T09:05:36.181Z,66.84
2017-10-28T09:08:03.682Z,66.99
2017-10-28T09:10:31.198Z,67.97
2017-10-28T09:12:58.673Z,67.07
2017-10-28T09:15:26.326Z,67.83
2017-10-28T09:17:53.800Z,67.60
2017-10-28T09:20:21.312Z,67.82
2017-10-28T09:22:48.774Z,68.77
2017-10-28T09:25:16.270Z,68.14
2017-10-28T09:27:43.762Z,67.49
2017-10-28T09:30:11.264Z,66.45
2017-10-28T09:32:38.771Z,66.91
2017-10-28T09:35:06.836Z,68.21
2017-10-28T09:37:34.477Z,68.43
2017-10-28T09:40:02.077Z,68.57
2017-10-28T09:42:29.648Z,68.50
2017-10-28T09:44:57.577Z,68.70
2017-10-28T09:47:25.072Z,67.96
2017-10-28T09:49:52.658Z,67.62
2017-10-28T09:52:20.132Z,68.17
2017-10-28T09:54:47.718Z,68.31
2017-10-28T09:57:15.299Z,68.14
2017-10-28T09:59:42.764Z,67.62
2017-10-28T10:02:11.383Z,67.25
2017-10-28T10:04:39.333Z,66.35
2017-10-28T10:07:06.811Z,66.14
2017-10-28T10:09:35.150Z,66.23
2017-10-28T10:12:03.670Z,66.75
2017-10-28T10:14:31.202Z,66.67
2017-10-28T10:17:01.542Z,67.72
2017-10-28T10:19:32.225Z,67.77
2017-10-28T10:21:59.684Z,67.11
2017-10-28T10:24:27.168Z,66.67
2017-10-28T10:26:54.856Z,66.17
2017-10-28T10:29:22.340Z,66.29
2017-10-28T10:31:49.817Z,65.52
2017-10-28T10:34:17.437Z,66.00
2017-10-28T10:36:45.572Z,63.66
2017-10-28T10:39:13.269Z,63.69
2017-10-28T10:41:40.771Z,61.15
2017-10-28T10:44:08.423Z,59.04
2017-10-28T10:46:35.881Z,57.12
2017-10-28T10:49:03.414Z,56.81
2017-10-28T10:51:31.058Z,55.28
2017-10-28T10:53:58.815Z,55.67
2017-10-28T10:56:26.274Z,55.35
2017-10-28T10:58:53.793Z,55.08
2017-10-28T11:01:21.490Z,54.79
2017-10-28T11:03:48.989Z,55.09
2017-10-28T11:06:16.616Z,53.43
2017-10-28T11:08:44.688Z,54.81
2017-10-28T11:11:12.185Z,55.48
2017-10-28T11:13:39.730Z,54.87
2017-10-28T11:16:07.216Z,53.93
2017-10-28T11:18:34.725Z,52.96
2017-10-28T11:21:02.203Z,52.82
2017-10-28T11:23:29.680Z,53.06
2017-10-28T11:25:58.212Z,53.45
2017-10-28T11:28:27.174Z,53.46
2017-10-28T11:30:54.738Z,53.37
2017-10-28T11:33:22.265Z,52.59
2017-10-28T11:35:49.756Z,51.63
2017-10-28T11:38:18.166Z,51.55
2017-10-28T11:40:45.720Z,50.73
2017-10-28T11:43:13.594Z,51.20
2017-10-28T11:45:41.110Z,50.24
2017-10-28T11:48:08.637Z,50.55
2017-10-28T11:50:36.388Z,49.58
2017-10-28T11:53:03.894Z,49.98
2017-10-28T11:55:31.441Z,50.82
2017-10-28T11:57:58.982Z,51.17
2017-10-28T12:00:26.512Z,51.50
2017-10-28T12:02:54.041Z,52.09
2017-10-28T12:05:21.635Z,51.57
2017-10-28T12:07:49.121Z,51.99
2017-10-28T12:10:16.847Z,51.72
2017-10-28T12:12:44.447Z,51.28
2017-10-28T12:15:12.060Z,51.53
2017-10-28T12:17:39.692Z,51.60
2017-10-28T12:20:07.460Z,51.68
2017-10-28T12:22:35.095Z,52.09
2017-10-28T12:25:04.119Z,52.12
2017-10-28T12:27:32.442Z,51.99
2017-10-28T12:30:10.961Z,51.44
2017-10-28T12:32:38.704Z,51.95
2017-10-28T12:35:06.284Z,52.67
2017-10-28T12:37:35.299Z,52.45
2017-10-28T12:40:02.929Z,52.62
2017-10-28T12:42:32.381Z,52.13
2017-10-28T12:45:01.704Z,52.02
2017-10-28T12:47:33.239Z,53.40
2017-10-28T12:50:01.924Z,52.81
2017-10-28T12:52:34.360Z,53.47
2017-10-28T12:55:02.010Z,53.40
2017-10-28T12:57:31.646Z,53.09
2017-10-28T12:59:59.204Z,51.86
2017-10-28T13:02:26.868Z,52.93
2017-10-28T13:05:01.649Z,52.34
2017-10-28T13:07:29.239Z,52.54
2017-10-28T13:09:58.022Z,52.14
2017-10-28T13:12:25.550Z,52.12
2017-10-28T13:14:53.186Z,52.06
2017-10-28T13:17:20.810Z,53.41
2017-10-28T13:19:48.400Z,52.83
2017-10-28T13:22:16.342Z,53.57
2017-10-28T13:24:46.188Z,54.04
2017-10-28T13:27:13.810Z,53.85
2017-10-28T13:29:41.850Z,52.92
2017-10-28T13:32:09.569Z,54.05
2017-10-28T13:34:38.024Z,54.53
2017-10-28T13:37:14.540Z,54.44
2017-10-28T13:39:44.333Z,53.67
2017-10-28T13:42:19.396Z,54.27
2017-10-28T13:47:25.708Z,54.03
